createdAt,value
2018-01-15T00:00:35.522Z,98175.34
2018-01-15T00:01:40.260Z,98175.80
2018-01-15T00:02:44.946Z,98174.59
2018-01-15T00:03:49.628Z,98173.36
2018-01-15T00:04:54.304Z,98182.41
2018-01-15T00:05:59.004Z,98178.70
2018-01-15T00:07:04.208Z,98172.12
2018-01-15T00:08:08.925Z,98166.80
2018-01-15T00:09:13.616Z,98169.29
2018-01-15T00:10:18.390Z,98169.64
2018-01-15T00:11:23.166Z,98166.31
2018-01-15T00:12:27.821Z,98160.58
2018-01-15T00:13:32.896Z,98154.04
2018-01-15T00:14:37.575Z,98146.64
2018-01-15T00:15:42.434Z,98151.55
2018-01-15T00:16:47.227Z,98149.13
2018-01-15T00:17:51.948Z,98142.14
2018-01-15T00:18:56.672Z,98142.95
2018-01-15T00:20:01.846Z,98140.88
2018-01-15T00:21:06.438Z,98136.38
2018-01-15T00:22:14.913Z,98137.20
2018-01-15T00:23:19.601Z,98142.55
2018-01-15T00:24:24.501Z,98131.41
2018-01-15T00:25:29.250Z,98138.44
2018-01-15T00:26:34.476Z,98137.62
2018-01-15T00:27:39.191Z,98133.53
2018-01-15T00:28:43.987Z,98140.50
2018-01-15T00:29:48.721Z,98137.20
2018-01-15T00:30:53.471Z,98138.45
2018-01-15T00:31:58.183Z,98124.06
2018-01-15T00:33:03.234Z,98129.38
2018-01-15T00:34:08.046Z,98123.61
2018-01-15T00:35:12.786Z,98118.66
2018-01-15T00:36:18.280Z,98124.42
2018-01-15T00:37:23.720Z,98125.30
2018-01-15T00:38:28.411Z,98117.83
2018-01-15T00:39:33.430Z,98115.77
2018-01-15T00:40:38.122Z,98111.68
2018-01-15T00:41:42.829Z,98107.59
2018-01-15T00:42:47.766Z,98110.94
2018-01-15T00:43:52.499Z,98110.06
2018-01-15T00:44:57.272Z,98106.38
2018-01-15T00:46:02.298Z,98107.16
2018-01-15T00:47:07.019Z,98107.17
2018-01-15T00:48:11.680Z,98104.70
2018-01-15T00:49:16.431Z,98109.63
2018-01-15T00:50:21.070Z,98104.68
2018-01-15T00:51:25.817Z,98103.06
2018-01-15T00:52:30.833Z,98101.82
2018-01-15T00:53:35.659Z,98091.91
2018-01-15T00:54:40.401Z,98086.16
2018-01-15T00:55:45.155Z,98095.61
2018-01-15T00:56:49.850Z,98091.89
2018-01-15T00:57:54.536Z,98089.41
2018-01-15T00:58:59.571Z,98091.06
2018-01-15T01:00:04.311Z,98091.88
2018-01-15T01:01:08.995Z,98092.27
2018-01-15T01:02:13.653Z,98086.51
2018-01-15T01:03:18.378Z,98083.20
2018-01-15T01:04:23.134Z,98079.87
2018-01-15T01:05:28.301Z,98081.13
2018-01-15T01:06:33.043Z,98081.89
2018-01-15T01:07:37.726Z,98077.34
2018-01-15T01:08:42.540Z,98081.45
2018-01-15T01:09:47.209Z,98080.98
2018-01-15T01:10:51.882Z,98083.48
2018-01-15T01:11:56.980Z,98075.62
2018-01-15T01:13:01.667Z,98077.24
2018-01-15T01:14:06.348Z,98077.25
2018-01-15T01:15:11.084Z,98083.44
2018-01-15T01:16:16.082Z,98073.13
2018-01-15T01:17:20.766Z,98070.64
2018-01-15T01:18:25.911Z,98073.11
2018-01-15T01:19:30.626Z,98070.64
2018-01-15T01:20:35.373Z,98068.61
2018-01-15T01:21:40.100Z,98066.55
2018-01-15T01:22:44.835Z,98060.33
2018-01-15T01:23:49.572Z,98062.82
2018-01-15T01:24:54.697Z,98050.47
2018-01-15T01:25:59.400Z,98057.89
2018-01-15T01:27:03.926Z,98055.02
2018-01-15T01:28:08.486Z,98057.88
2018-01-15T01:29:13.042Z,98056.25
2018-01-15T01:30:17.746Z,98058.75
2018-01-15T01:31:22.690Z,98062.03
2018-01-15T01:32:27.161Z,98057.87
2018-01-15T01:33:31.788Z,98050.45
2018-01-15T01:34:36.489Z,98056.66
2018-01-15T01:35:41.177Z,98061.17
2018-01-15T01:36:45.774Z,98058.27
2018-01-15T01:37:51.202Z,98061.53
2018-01-15T01:38:55.936Z,98059.05
2018-01-15T01:40:00.671Z,98065.67
2018-01-15T01:41:05.381Z,98058.69
2018-01-15T01:42:10.086Z,98060.34
2018-01-15T01:43:14.999Z,98050.03
2018-01-15T01:44:20.169Z,98054.14
2018-01-15T01:45:24.779Z,98049.62
2018-01-15T01:46:29.267Z,98058.67
2018-01-15T01:47:33.728Z,98052.89
2018-01-15T01:48:38.227Z,98054.11
2018-01-15T01:49:42.701Z,98053.27
2018-01-15T01:50:47.911Z,98042.52
2018-01-15T01:51:52.781Z,98039.27
2018-01-15T01:52:57.539Z,98047.92
2018-01-15T01:54:02.390Z,98038.00
2018-01-15T01:55:07.152Z,98042.51
2018-01-15T01:56:12.094Z,98036.36
2018-01-15T01:57:17.134Z,98041.25
2018-01-15T01:58:21.826Z,98037.90
2018-01-15T01:59:26.517Z,98031.74
2018-01-15T02:00:31.194Z,98044.51
2018-01-15T02:01:35.872Z,98042.41
2018-01-15T02:02:40.756Z,98041.17
2018-01-15T02:03:45.788Z,98035.80
2018-01-15T02:04:50.511Z,98035.87
2018-01-15T02:05:55.194Z,98036.69
2018-01-15T02:06:59.965Z,98030.88
2018-01-15T02:08:05.504Z,98032.08
2018-01-15T02:09:10.657Z,98032.84
2018-01-15T02:10:15.399Z,98033.31
2018-01-15T02:11:20.082Z,98033.27
2018-01-15T02:12:24.837Z,98033.64
2018-01-15T02:13:29.560Z,98036.95
2018-01-15T02:14:34.309Z,98034.45
2018-01-15T02:15:39.368Z,98032.41
2018-01-15T02:16:44.038Z,98031.53
2018-01-15T02:17:48.789Z,98036.97
2018-01-15T02:18:53.506Z,98029.55
2018-01-15T02:19:58.199Z,98030.77
2018-01-15T02:21:03.041Z,98030.84
2018-01-15T02:22:08.025Z,98022.95
2018-01-15T02:23:12.749Z,98021.20
2018-01-15T02:24:17.540Z,98031.03
2018-01-15T02:25:22.248Z,98023.62
2018-01-15T02:26:26.955Z,98027.03
2018-01-15T02:27:31.668Z,98016.80
2018-01-15T02:28:36.760Z,98020.08
2018-01-15T02:29:41.427Z,98019.18
2018-01-15T02:30:46.410Z,98022.48
2018-01-15T02:31:51.161Z,98018.45
2018-01-15T02:32:55.760Z,98018.00
2018-01-15T02:34:00.338Z,98011.77
2018-01-15T02:35:05.336Z,98012.57
2018-01-15T02:36:10.149Z,98015.43
2018-01-15T02:37:14.868Z,98012.54
2018-01-15T02:38:19.578Z,98003.94
2018-01-15T02:39:24.299Z,97997.88
2018-01-15T02:40:29.666Z,97992.12
2018-01-15T02:41:34.843Z,98000.34
2018-01-15T02:42:39.552Z,97995.84
2018-01-15T02:43:44.305Z,97989.25
2018-01-15T02:44:49.047Z,97984.22
2018-01-15T02:45:53.817Z,97985.48
2018-01-15T02:46:58.556Z,97983.05
2018-01-15T02:48:03.725Z,97977.27
2018-01-15T02:49:08.410Z,97972.42
2018-01-15T02:50:13.286Z,97978.15
2018-01-15T02:51:18.071Z,97978.94
2018-01-15T02:52:22.846Z,97968.59
2018-01-15T02:53:27.550Z,97971.43
2018-01-15T02:54:32.671Z,97968.99
2018-01-15T02:55:37.353Z,97974.81
2018-01-15T02:56:41.983Z,97966.16
2018-01-15T02:57:46.623Z,97965.73
2018-01-15T02:58:51.365Z,97961.20
2018-01-15T02:59:56.089Z,97961.62
2018-01-15T03:01:01.153Z,97961.69
2018-01-15T03:02:05.902Z,97964.51
2018-01-15T03:03:10.640Z,97956.67
2018-01-15T03:04:15.406Z,97964.09
2018-01-15T03:05:20.123Z,97958.75
2018-01-15T03:06:24.829Z,97955.84
2018-01-15T03:07:29.867Z,97962.44
2018-01-15T03:08:34.593Z,97962.84
2018-01-15T03:09:39.302Z,97955.47
2018-01-15T03:10:44.092Z,97952.56
2018-01-15T03:11:48.766Z,97954.69
2018-01-15T03:12:53.510Z,97950.54
2018-01-15T03:13:58.554Z,97947.27
2018-01-15T03:15:03.273Z,97946.05
2018-01-15T03:16:07.994Z,97951.72
2018-01-15T03:17:12.727Z,97947.99
2018-01-15T03:18:17.423Z,97949.25
2018-01-15T03:19:22.295Z,97947.62
2018-01-15T03:20:27.462Z,97943.50
2018-01-15T03:21:32.217Z,97945.09
2018-01-15T03:22:36.871Z,97943.06
2018-01-15T03:23:41.481Z,97943.91
2018-01-15T03:24:46.061Z,97934.41
2018-01-15T03:25:50.738Z,97935.61
2018-01-15T03:26:55.960Z,97935.52
2018-01-15T03:28:00.686Z,97932.21
2018-01-15T03:29:05.384Z,97931.33
2018-01-15T03:30:10.114Z,97935.05
2018-01-15T03:31:14.889Z,97929.34
2018-01-15T03:32:19.602Z,97930.16
2018-01-15T03:33:24.638Z,97925.97
2018-01-15T03:34:29.411Z,97920.93
2018-01-15T03:35:34.170Z,97921.74
2018-01-15T03:36:38.927Z,97917.30
2018-01-15T03:37:43.690Z,97917.73
2018-01-15T03:38:48.437Z,97916.02
2018-01-15T03:39:53.652Z,97916.14
2018-01-15T03:40:58.353Z,97914.87
2018-01-15T03:42:03.135Z,97921.45
2018-01-15T03:43:07.883Z,97919.01
2018-01-15T03:44:12.627Z,97919.36
2018-01-15T03:45:17.775Z,97918.05
2018-01-15T03:46:22.474Z,97915.55
2018-01-15T03:47:27.051Z,97920.93
2018-01-15T03:48:31.628Z,97917.72
2018-01-15T03:49:36.370Z,97909.04
2018-01-15T03:50:41.056Z,97903.66
2018-01-15T03:51:46.057Z,97897.13
2018-01-15T03:52:50.760Z,97899.97
2018-01-15T03:53:55.476Z,97890.91
2018-01-15T03:55:00.167Z,97880.17
2018-01-15T03:56:04.874Z,97882.19
2018-01-15T03:57:09.627Z,97879.73
2018-01-15T03:58:14.779Z,97878.11
2018-01-15T03:59:19.401Z,97880.55
2018-01-15T04:00:24.029Z,97873.92
2018-01-15T04:01:28.676Z,97871.84
2018-01-15T04:02:33.519Z,97866.09
2018-01-15T04:03:38.240Z,97868.55
2018-01-15T04:04:43.555Z,97865.63
2018-01-15T04:05:48.325Z,97865.66
2018-01-15T04:06:53.056Z,97863.58
2018-01-15T04:07:57.783Z,97856.97
2018-01-15T04:09:02.596Z,97867.63
2018-01-15T04:10:07.292Z,97863.94
2018-01-15T04:11:12.514Z,97867.69
2018-01-15T04:12:17.301Z,97860.68
2018-01-15T04:13:22.023Z,97857.77
2018-01-15T04:14:26.775Z,97863.44
2018-01-15T04:15:31.400Z,97851.85
2018-01-15T04:16:35.966Z,97853.14
2018-01-15T04:17:41.005Z,97846.06
2018-01-15T04:18:45.719Z,97845.73
2018-01-15T04:19:50.454Z,97848.73
2018-01-15T04:20:55.272Z,97840.03
2018-01-15T04:21:59.983Z,97834.67
2018-01-15T04:23:04.716Z,97834.12
2018-01-15T04:24:09.849Z,97840.77
2018-01-15T04:25:14.541Z,97831.27
2018-01-15T04:26:19.148Z,97829.54
2018-01-15T04:27:23.794Z,97832.92
2018-01-15T04:28:28.411Z,97830.03
2018-01-15T04:29:33.039Z,97825.14
2018-01-15T04:30:38.098Z,97830.06
2018-01-15T04:31:42.838Z,97832.94
2018-01-15T04:32:47.584Z,97827.06
2018-01-15T04:33:52.323Z,97820.03
2018-01-15T04:34:57.042Z,97823.73
2018-01-15T04:36:01.885Z,97825.73
2018-01-15T04:37:07.241Z,97824.09
2018-01-15T04:38:12.098Z,97823.75
2018-01-15T04:39:16.872Z,97820.84
2018-01-15T04:40:21.729Z,97817.98
2018-01-15T04:41:26.445Z,97812.94
2018-01-15T04:42:31.283Z,97815.03
2018-01-15T04:43:36.411Z,97810.93
2018-01-15T04:44:41.192Z,97812.64
2018-01-15T04:45:46.047Z,97815.44
2018-01-15T04:46:50.778Z,97817.87
2018-01-15T04:47:55.587Z,97815.84
2018-01-15T04:49:00.365Z,97819.13
2018-01-15T04:50:05.594Z,97816.18
2018-01-15T04:51:10.346Z,97805.13
2018-01-15T04:52:15.480Z,97798.05
2018-01-15T04:53:20.181Z,97806.28
2018-01-15T04:54:25.342Z,97804.55
2018-01-15T04:55:29.995Z,97799.63
2018-01-15T04:56:35.903Z,97803.88
2018-01-15T04:57:40.518Z,97802.24
2018-01-15T04:58:45.230Z,97800.10
2018-01-15T04:59:49.964Z,97801.66
2018-01-15T05:00:54.670Z,97804.50
2018-01-15T05:01:59.430Z,97798.83
2018-01-15T05:03:04.635Z,97800.85
2018-01-15T05:04:09.357Z,97792.18
2018-01-15T05:05:14.082Z,97794.74
2018-01-15T05:06:18.819Z,97790.13
2018-01-15T05:07:23.562Z,97793.85
2018-01-15T05:08:28.281Z,97792.70
2018-01-15T05:09:33.398Z,97795.42
2018-01-15T05:10:38.113Z,97794.55
2018-01-15T05:11:42.843Z,97793.69
2018-01-15T05:12:47.613Z,97795.72
2018-01-15T05:13:52.372Z,97793.75
2018-01-15T05:14:57.184Z,97790.84
2018-01-15T05:16:02.270Z,97790.44
2018-01-15T05:17:08.939Z,97796.63
2018-01-15T05:18:14.785Z,97795.30
2018-01-15T05:19:19.405Z,97797.34
2018-01-15T05:20:24.054Z,97789.50
2018-01-15T05:21:28.662Z,97789.17
2018-01-15T05:22:33.743Z,97788.67
2018-01-15T05:23:38.318Z,97780.98
2018-01-15T05:24:43.031Z,97782.20
2018-01-15T05:25:47.587Z,97785.18
2018-01-15T05:26:52.128Z,97781.44
2018-01-15T05:27:56.698Z,97783.77
2018-01-15T05:29:01.690Z,97783.73
2018-01-15T05:30:06.240Z,97782.45
2018-01-15T05:31:10.797Z,97774.83
2018-01-15T05:32:15.386Z,97776.09
2018-01-15T05:33:20.012Z,97776.17
2018-01-15T05:34:26.128Z,97772.83
2018-01-15T05:35:32.270Z,97774.78
2018-01-15T05:36:36.954Z,97774.00
2018-01-15T05:37:41.619Z,97777.31
2018-01-15T05:38:46.355Z,97771.91
2018-01-15T05:39:51.076Z,97770.25
2018-01-15T05:40:55.844Z,97770.23
2018-01-15T05:42:01.042Z,97773.09
2018-01-15T05:43:05.808Z,97778.48
2018-01-15T05:44:10.529Z,97776.39
2018-01-15T05:45:15.210Z,97777.65
2018-01-15T05:46:19.857Z,97771.10
2018-01-15T05:47:24.488Z,97776.03
2018-01-15T05:48:30.056Z,97775.66
2018-01-15T05:49:34.764Z,97776.81
2018-01-15T05:50:39.404Z,97776.85
2018-01-15T05:51:44.029Z,97776.85
2018-01-15T05:52:48.650Z,97774.66
2018-01-15T05:53:53.299Z,97777.65
2018-01-15T05:54:58.470Z,97771.97
2018-01-15T05:56:03.137Z,97772.80
2018-01-15T05:57:07.785Z,97770.35
2018-01-15T05:58:12.577Z,97769.88
2018-01-15T05:59:17.330Z,97768.23
2018-01-15T06:00:22.047Z,97768.17
2018-01-15T06:01:27.099Z,97767.31
2018-01-15T06:02:31.680Z,97767.66
2018-01-15T06:03:36.458Z,97771.32
2018-01-15T06:04:41.271Z,97754.19
2018-01-15T06:05:45.944Z,97753.25
2018-01-15T06:06:50.635Z,97753.67
2018-01-15T06:07:55.793Z,97750.80
2018-01-15T06:09:00.597Z,97753.30
2018-01-15T06:10:05.367Z,97748.00
2018-01-15T06:11:10.127Z,97754.13
2018-01-15T06:12:15.064Z,97753.30
2018-01-15T06:13:19.825Z,97756.19
2018-01-15T06:14:25.056Z,97753.23
2018-01-15T06:15:29.801Z,97751.52
2018-01-15T06:16:35.301Z,97759.03
2018-01-15T06:17:40.091Z,97747.05
2018-01-15T06:18:44.921Z,97744.16
2018-01-15T06:19:49.813Z,97741.64
2018-01-15T06:20:54.974Z,97742.08
2018-01-15T06:21:59.739Z,97739.97
2018-01-15T06:23:04.601Z,97743.64
2018-01-15T06:24:09.390Z,97739.08
2018-01-15T06:25:14.172Z,97739.10
2018-01-15T06:26:18.965Z,97734.90
2018-01-15T06:27:24.147Z,97731.22
2018-01-15T06:28:28.917Z,97729.58
2018-01-15T06:29:48.560Z,97727.45
2018-01-15T06:30:53.195Z,97727.86
2018-01-15T06:31:57.867Z,97725.71
2018-01-15T06:33:02.574Z,97728.17
2018-01-15T06:34:07.961Z,97722.42
2018-01-15T06:35:12.633Z,97724.10
2018-01-15T06:36:17.290Z,97730.73
2018-01-15T06:37:21.942Z,97721.67
2018-01-15T06:38:26.583Z,97723.00
2018-01-15T06:39:31.333Z,97736.95
2018-01-15T06:40:36.531Z,97733.17
2018-01-15T06:41:41.274Z,97730.69
2018-01-15T06:42:46.853Z,97739.36
2018-01-15T06:43:51.596Z,97733.58
2018-01-15T06:44:56.353Z,97731.95
2018-01-15T06:46:01.129Z,97726.71
2018-01-15T06:47:06.190Z,97727.20
2018-01-15T06:48:10.897Z,97724.70
2018-01-15T06:49:15.652Z,97722.22
2018-01-15T06:50:20.344Z,97732.16
2018-01-15T06:51:24.975Z,97726.42
2018-01-15T06:52:29.682Z,97724.41
2018-01-15T06:53:34.438Z,97723.64
2018-01-15T06:54:39.030Z,97720.37
2018-01-15T06:55:43.728Z,97717.39
2018-01-15T06:56:48.359Z,97722.35
2018-01-15T06:57:53.005Z,97717.89
2018-01-15T06:58:57.733Z,97722.06
2018-01-15T07:00:02.714Z,97719.96
2018-01-15T07:01:07.386Z,97711.64
2018-01-15T07:02:12.022Z,97713.71
2018-01-15T07:03:16.667Z,97708.41
2018-01-15T07:04:21.268Z,97709.63
2018-01-15T07:05:25.965Z,97712.06
2018-01-15T07:06:30.987Z,97706.29
2018-01-15T07:07:35.649Z,97709.25
2018-01-15T07:08:40.413Z,97707.95
2018-01-15T07:09:45.258Z,97714.03
2018-01-15T07:10:50.146Z,97709.46
2018-01-15T07:11:54.944Z,97708.58
2018-01-15T07:12:59.895Z,97702.39
2018-01-15T07:14:04.704Z,97708.17
2018-01-15T07:15:09.554Z,97705.58
2018-01-15T07:16:14.383Z,97704.76
2018-01-15T07:17:18.934Z,97708.05
2018-01-15T07:18:23.635Z,97705.59
2018-01-15T07:19:28.854Z,97708.06
2018-01-15T07:20:33.637Z,97707.13
2018-01-15T07:21:38.479Z,97710.72
2018-01-15T07:22:43.510Z,97716.42
2018-01-15T07:23:48.234Z,97710.25
2018-01-15T07:24:53.155Z,97715.53
2018-01-15T07:25:58.330Z,97716.34
2018-01-15T07:27:03.208Z,97713.03
2018-01-15T07:28:07.922Z,97706.13
2018-01-15T07:29:12.582Z,97708.16
2018-01-15T07:30:17.432Z,97701.58
2018-01-15T07:31:22.090Z,97694.66
2018-01-15T07:32:27.073Z,97693.47
2018-01-15T07:33:31.782Z,97684.37
2018-01-15T07:34:36.508Z,97687.25
2018-01-15T07:35:41.359Z,97685.95
2018-01-15T07:36:46.130Z,97683.05
2018-01-15T07:37:51.126Z,97688.83
2018-01-15T07:38:56.256Z,97683.48
2018-01-15T07:40:00.974Z,97676.37
2018-01-15T07:41:05.741Z,97683.69
2018-01-15T07:42:10.489Z,97678.72
2018-01-15T07:43:15.243Z,97680.71
2018-01-15T07:44:20.032Z,97674.98
2018-01-15T07:45:25.186Z,97674.06
2018-01-15T07:46:29.945Z,97677.38
2018-01-15T07:47:34.638Z,97672.78
2018-01-15T07:48:39.427Z,97681.34
2018-01-15T07:49:44.179Z,97683.74
2018-01-15T07:50:48.919Z,97673.88
2018-01-15T07:51:54.018Z,97680.41
2018-01-15T07:52:58.767Z,97684.45
2018-01-15T07:54:04.570Z,97680.69
2018-01-15T07:55:09.329Z,97678.61
2018-01-15T07:56:14.133Z,97679.45
2018-01-15T07:57:18.906Z,97678.93
2018-01-15T07:58:24.170Z,97674.80
2018-01-15T07:59:28.989Z,97664.49
2018-01-15T08:00:33.727Z,97676.14
2018-01-15T08:01:38.467Z,97669.50
2018-01-15T08:02:43.226Z,97671.65
2018-01-15T08:03:47.974Z,97667.41
2018-01-15T08:04:53.036Z,97666.55
2018-01-15T08:05:57.787Z,97657.89
2018-01-15T08:07:02.482Z,97660.02
2018-01-15T08:08:07.279Z,97658.83
2018-01-15T08:09:11.997Z,97653.09
2018-01-15T08:10:16.785Z,97655.11
2018-01-15T08:11:22.015Z,97655.17
2018-01-15T08:12:26.780Z,97650.95
2018-01-15T08:13:31.515Z,97643.19
2018-01-15T08:14:36.305Z,97641.19
2018-01-15T08:15:41.081Z,97643.30
2018-01-15T08:16:46.146Z,97642.02
2018-01-15T08:17:51.678Z,97635.40
2018-01-15T08:18:56.393Z,97633.80
2018-01-15T08:20:01.011Z,97635.84
2018-01-15T08:21:05.838Z,97632.13
2018-01-15T08:22:11.052Z,97636.68
2018-01-15T08:23:15.838Z,97633.73
2018-01-15T08:24:21.075Z,97635.38
2018-01-15T08:25:26.132Z,97630.36
2018-01-15T08:26:30.835Z,97622.14
2018-01-15T08:27:35.386Z,97620.07
2018-01-15T08:28:39.956Z,97624.95
2018-01-15T08:29:44.895Z,97615.42
2018-01-15T08:30:49.492Z,97620.73
2018-01-15T08:31:54.153Z,97613.30
2018-01-15T08:32:58.831Z,97619.84
2018-01-15T08:34:03.496Z,97612.41
2018-01-15T08:35:08.569Z,97611.11
2018-01-15T08:36:13.637Z,97617.27
2018-01-15T08:37:18.308Z,97601.67
2018-01-15T08:38:22.966Z,97603.64
2018-01-15T08:39:27.646Z,97601.14
2018-01-15T08:40:32.364Z,97595.45
2018-01-15T08:41:37.011Z,97599.41
2018-01-15T08:42:42.404Z,97600.98
2018-01-15T08:43:47.335Z,97601.85
2018-01-15T08:44:52.034Z,97608.94
2018-01-15T08:45:56.840Z,97608.92
2018-01-15T08:47:01.497Z,97602.36
2018-01-15T08:48:06.179Z,97610.64
2018-01-15T08:49:11.331Z,97614.32
2018-01-15T08:50:16.098Z,97612.55
2018-01-15T08:51:20.917Z,97605.53
2018-01-15T08:52:25.737Z,97602.60
2018-01-15T08:53:30.473Z,97600.52
2018-01-15T08:54:35.638Z,97605.45
2018-01-15T08:55:40.850Z,97599.13
2018-01-15T08:56:45.596Z,97595.95
2018-01-15T08:57:50.318Z,97600.95
2018-01-15T08:58:55.065Z,97595.91
2018-01-15T08:59:59.761Z,97595.93
2018-01-15T09:01:04.874Z,97593.35
2018-01-15T09:02:09.929Z,97587.56
2018-01-15T09:03:14.715Z,97590.04
2018-01-15T09:04:19.427Z,97579.23
2018-01-15T09:05:24.238Z,97581.22
2018-01-15T09:06:29.074Z,97577.81
2018-01-15T09:07:33.802Z,97580.72
2018-01-15T09:08:38.999Z,97577.36
2018-01-15T09:09:43.727Z,97577.72
2018-01-15T09:10:48.472Z,97582.22
2018-01-15T09:11:53.147Z,97572.36
2018-01-15T09:12:57.898Z,97575.27
2018-01-15T09:14:02.545Z,97571.45
2018-01-15T09:15:07.601Z,97564.79
2018-01-15T09:16:12.289Z,97562.31
2018-01-15T09:17:16.968Z,97560.11
2018-01-15T09:18:21.665Z,97562.41
2018-01-15T09:19:26.308Z,97561.16
2018-01-15T09:20:30.833Z,97558.27
2018-01-15T09:21:35.751Z,97555.47
2018-01-15T09:22:40.387Z,97550.74
2018-01-15T09:23:45.157Z,97552.91
2018-01-15T09:24:50.878Z,97546.37
2018-01-15T09:25:55.577Z,97552.95
2018-01-15T09:27:00.280Z,97551.28
2018-01-15T09:28:05.344Z,97545.40
2018-01-15T09:29:10.249Z,97544.20
2018-01-15T09:30:15.742Z,97548.64
2018-01-15T09:31:20.722Z,97546.94
2018-01-15T09:32:25.890Z,97549.36
2018-01-15T09:33:30.668Z,97549.33
2018-01-15T09:34:35.741Z,97545.20
2018-01-15T09:35:40.549Z,97540.55
2018-01-15T09:36:45.367Z,97541.78
2018-01-15T09:37:50.369Z,97543.52
2018-01-15T09:38:55.108Z,97541.48
2018-01-15T09:39:59.877Z,97538.02
2018-01-15T09:41:05.111Z,97524.38
2018-01-15T09:42:09.903Z,97525.53
2018-01-15T09:43:14.688Z,97530.17
2018-01-15T09:44:19.480Z,97519.72
2018-01-15T09:45:24.289Z,97529.20
2018-01-15T09:46:29.012Z,97527.84
2018-01-15T09:47:34.709Z,97531.28
2018-01-15T09:48:39.545Z,97525.37
2018-01-15T09:49:44.324Z,97525.41
2018-01-15T09:50:49.126Z,97520.09
2018-01-15T09:51:53.839Z,97527.97
2018-01-15T09:52:58.586Z,97528.80
2018-01-15T09:54:04.027Z,97516.80
2018-01-15T09:55:08.708Z,97517.93
2018-01-15T09:56:13.361Z,97517.62
2018-01-15T09:57:18.073Z,97504.48
2018-01-15T09:58:22.789Z,97503.59
2018-01-15T09:59:27.447Z,97511.16
2018-01-15T10:00:32.580Z,97509.95
2018-01-15T10:01:37.328Z,97516.18
2018-01-15T10:02:42.012Z,97516.95
2018-01-15T10:03:46.775Z,97509.91
2018-01-15T10:04:51.436Z,97507.84
2018-01-15T10:05:56.039Z,97512.38
2018-01-15T10:07:01.069Z,97514.87
2018-01-15T10:08:05.703Z,97517.19
2018-01-15T10:09:10.355Z,97501.88
2018-01-15T10:10:14.977Z,97492.87
2018-01-15T10:11:19.618Z,97493.01
2018-01-15T10:12:24.257Z,97495.47
2018-01-15T10:13:29.366Z,97493.73
2018-01-15T10:14:34.078Z,97483.14
2018-01-15T10:15:38.991Z,97492.03
2018-01-15T10:16:44.193Z,97493.04
2018-01-15T10:17:49.053Z,97486.48
2018-01-15T10:18:53.769Z,97472.89
2018-01-15T10:19:59.073Z,97474.56
2018-01-15T10:21:03.758Z,97473.18
2018-01-15T10:22:08.838Z,97467.39
2018-01-15T10:23:13.459Z,97465.27
2018-01-15T10:24:18.119Z,97460.33
2018-01-15T10:25:22.790Z,97465.22
2018-01-15T10:26:27.937Z,97463.14
2018-01-15T10:27:32.599Z,97457.76
2018-01-15T10:28:37.233Z,97459.78
2018-01-15T10:29:41.861Z,97445.21
2018-01-15T10:30:46.588Z,97442.25
2018-01-15T10:31:51.228Z,97442.76
2018-01-15T10:32:56.273Z,97447.23
2018-01-15T10:34:00.939Z,97447.91
2018-01-15T10:35:06.282Z,97442.33
2018-01-15T10:36:10.924Z,97426.31
2018-01-15T10:37:15.629Z,97431.06
2018-01-15T10:38:20.515Z,97421.47
2018-01-15T10:39:25.743Z,97422.61
2018-01-15T10:40:30.521Z,97423.75
2018-01-15T10:41:35.199Z,97411.70
2018-01-15T10:42:39.764Z,97414.12
2018-01-15T10:43:44.338Z,97417.18
2018-01-15T10:44:49.182Z,97412.90
2018-01-15T10:45:54.295Z,97402.67
2018-01-15T10:46:59.150Z,97407.28
2018-01-15T10:48:03.875Z,97405.88
2018-01-15T10:49:08.688Z,97405.08
2018-01-15T10:50:13.324Z,97400.84
2018-01-15T10:51:17.999Z,97395.42
2018-01-15T10:52:23.225Z,97400.92
2018-01-15T10:53:27.937Z,97376.19
2018-01-15T10:54:32.694Z,97376.52
2018-01-15T10:55:37.357Z,97383.32
2018-01-15T10:56:42.099Z,97377.11
2018-01-15T10:57:47.262Z,97372.69
2018-01-15T10:58:52.482Z,97367.22
2018-01-15T10:59:57.249Z,97365.20
2018-01-15T11:01:06.108Z,97363.55
2018-01-15T11:02:10.956Z,97364.38
2018-01-15T11:03:15.806Z,97365.63
2018-01-15T11:04:20.570Z,97367.95
2018-01-15T11:05:25.751Z,97354.30
2018-01-15T11:06:30.515Z,97353.36
2018-01-15T11:07:35.240Z,97353.28
2018-01-15T11:08:40.029Z,97357.13
2018-01-15T11:09:44.858Z,97347.61
2018-01-15T11:10:49.694Z,97355.36
2018-01-15T11:11:54.702Z,97346.05
2018-01-15T11:12:59.465Z,97341.25
2018-01-15T11:14:04.356Z,97341.36
2018-01-15T11:15:09.153Z,97344.64
2018-01-15T11:16:14.131Z,97346.37
2018-01-15T11:17:18.941Z,97336.45
2018-01-15T11:18:24.019Z,97337.80
2018-01-15T11:19:28.687Z,97335.31
2018-01-15T11:20:33.367Z,97342.80
2018-01-15T11:21:38.173Z,97327.03
2018-01-15T11:22:42.891Z,97330.70
2018-01-15T11:23:47.678Z,97318.32
2018-01-15T11:24:52.791Z,97324.17
2018-01-15T11:25:57.854Z,97319.66
2018-01-15T11:27:02.745Z,97317.62
2018-01-15T11:28:07.526Z,97316.05
2018-01-15T11:29:12.287Z,97309.87
2018-01-15T11:30:17.110Z,97309.05
2018-01-15T11:31:22.407Z,97304.16
2018-01-15T11:32:27.247Z,97302.08
2018-01-15T11:33:31.965Z,97301.14
2018-01-15T11:34:36.781Z,97297.13
2018-01-15T11:35:41.547Z,97301.19
2018-01-15T11:36:46.506Z,97298.72
2018-01-15T11:37:51.738Z,97295.83
2018-01-15T11:38:56.512Z,97295.34
2018-01-15T11:40:01.165Z,97280.86
2018-01-15T11:41:05.916Z,97276.38
2018-01-15T11:43:32.414Z,97282.98
2018-01-15T11:44:37.211Z,97272.58
2018-01-15T11:45:41.894Z,97272.25
2018-01-15T11:46:46.626Z,97267.53
2018-01-15T11:47:51.273Z,97264.99
2018-01-15T11:48:56.021Z,97258.93
2018-01-15T11:50:00.977Z,97256.91
2018-01-15T11:51:05.747Z,97261.12
2018-01-15T11:52:10.380Z,97261.79
2018-01-15T11:53:15.039Z,97254.66
2018-01-15T11:54:19.801Z,97245.17
2018-01-15T11:55:24.534Z,97248.60
2018-01-15T11:56:29.528Z,97239.80
2018-01-15T11:57:34.237Z,97231.90
2018-01-15T11:58:39.040Z,97232.70
2018-01-15T11:59:43.864Z,97219.89
2018-01-15T12:00:48.703Z,97217.33
2018-01-15T12:01:54.067Z,97221.44
2018-01-15T12:02:59.244Z,97226.28
2018-01-15T12:04:04.139Z,97220.80
2018-01-15T12:05:08.873Z,97225.67
2018-01-15T12:07:36.042Z,97202.88
2018-01-15T12:08:41.176Z,97208.80
2018-01-15T12:09:46.338Z,97203.39
2018-01-15T12:10:50.905Z,97205.73
2018-01-15T12:12:11.061Z,97194.88
2018-01-15T12:13:18.950Z,97192.40
2018-01-15T12:14:25.060Z,97200.19
2018-01-15T12:15:30.050Z,97183.50
2018-01-15T12:16:34.902Z,97185.47
2018-01-15T12:17:39.431Z,97177.88
2018-01-15T12:18:44.479Z,97177.09
2018-01-15T12:21:10.560Z,97171.98
2018-01-15T12:22:17.429Z,97159.20
2018-01-15T12:23:22.112Z,97156.72
2018-01-15T12:24:26.759Z,97153.80
2018-01-15T12:25:31.438Z,97144.61
2018-01-15T12:26:36.132Z,97160.27
2018-01-15T12:27:41.388Z,97148.53
2018-01-15T12:28:46.842Z,97153.03
2018-01-15T12:29:51.640Z,97142.26
2018-01-15T12:30:57.383Z,97134.00
2018-01-15T12:32:02.833Z,97129.84
2018-01-15T12:33:07.585Z,97134.53
2018-01-15T12:34:12.719Z,97124.19
2018-01-15T12:35:17.585Z,97119.63
2018-01-15T12:36:22.288Z,97118.82
2018-01-15T12:37:27.075Z,97120.81
2018-01-15T12:38:31.749Z,97112.34
2018-01-15T12:39:36.413Z,97107.74
2018-01-15T12:40:41.466Z,97106.00
2018-01-15T12:41:46.152Z,97102.03
2018-01-15T12:42:51.092Z,97099.27
2018-01-15T12:43:55.847Z,97096.78
2018-01-15T12:45:00.571Z,97084.13
2018-01-15T12:46:05.238Z,97073.10